createdAt,value
2018-06-16T00:02:55.928Z,17.20
2018-06-16T00:07:58.120Z,17.00
2018-06-16T00:13:00.302Z,17.00
2018-06-16T00:18:02.649Z,16.90
2018-06-16T00:23:04.950Z,16.80
2018-06-16T00:28:07.106Z,16.80
2018-06-16T00:33:09.277Z,16.80
2018-06-16T00:38:11.447Z,16.70
2018-06-16T00:43:13.622Z,16.70
2018-06-16T00:48:15.958Z,16.70
2018-06-16T00:53:18.139Z,16.60
2018-06-16T00:58:20.319Z,16.60
2018-06-16T01:03:22.491Z,16.60
2018-06-16T01:08:24.663Z,16.60
2018-06-16T01:13:26.825Z,16.60
2018-06-16T01:18:29.006Z,16.50
2018-06-16T01:23:31.209Z,16.40
2018-06-16T01:28:33.410Z,16.50
2018-06-16T01:33:35.621Z,16.50
2018-06-16T01:38:37.788Z,16.50
2018-06-16T01:43:39.963Z,16.50
2018-06-16T01:48:42.131Z,16.50
2018-06-16T01:53:44.294Z,16.50
2018-06-16T01:58:46.475Z,16.50
2018-06-16T02:03:48.793Z,16.50
2018-06-16T02:08:50.937Z,16.60
2018-06-16T02:13:53.129Z,16.60
2018-06-16T02:18:55.565Z,16.60
2018-06-16T02:23:57.731Z,16.60
2018-06-16T02:28:59.886Z,16.60
2018-06-16T02:34:02.067Z,16.60
2018-06-16T02:39:06.630Z,16.60
2018-06-16T02:44:08.959Z,16.60
2018-06-16T02:49:11.129Z,16.50
2018-06-16T02:54:13.258Z,16.50
2018-06-16T02:59:15.486Z,16.50
2018-06-16T03:04:17.633Z,16.50
2018-06-16T03:09:19.785Z,16.40
2018-06-16T03:14:21.934Z,16.30
2018-06-16T03:19:24.063Z,16.30
2018-06-16T03:24:26.230Z,16.30
2018-06-16T03:29:28.370Z,16.20
2018-06-16T03:34:30.512Z,16.10
2018-06-16T03:39:32.654Z,16.20
2018-06-16T03:44:34.827Z,16.20
2018-06-16T03:49:36.974Z,16.20
2018-06-16T03:54:39.109Z,16.20
2018-06-16T03:59:41.261Z,16.20
2018-06-16T04:04:43.415Z,16.20
2018-06-16T04:09:45.569Z,16.30
2018-06-16T04:14:47.722Z,16.30
2018-06-16T04:19:50.884Z,16.20
2018-06-16T04:24:53.054Z,16.30
2018-06-16T04:29:55.209Z,16.30
2018-06-16T04:34:57.362Z,16.40
2018-06-16T04:39:59.528Z,16.40
2018-06-16T04:45:01.662Z,16.40
2018-06-16T04:50:03.806Z,16.50
2018-06-16T04:55:06.014Z,16.70
2018-06-16T05:00:08.169Z,16.80
2018-06-16T05:05:11.123Z,16.90
2018-06-16T05:10:13.274Z,17.00
2018-06-16T05:15:15.675Z,17.20
2018-06-16T05:20:19.013Z,17.30
2018-06-16T05:25:21.235Z,17.40
2018-06-16T05:30:23.394Z,17.50
2018-06-16T05:35:25.533Z,17.70
2018-06-16T05:40:27.709Z,18.10
2018-06-16T05:45:30.033Z,18.10
2018-06-16T05:50:32.170Z,18.40
2018-06-16T05:55:34.310Z,18.30
2018-06-16T06:00:36.500Z,18.40
2018-06-16T06:05:38.822Z,18.50
2018-06-16T06:10:41.170Z,18.60
2018-06-16T06:15:43.360Z,18.60
2018-06-16T06:20:45.556Z,18.70
2018-06-16T06:25:47.708Z,18.90
2018-06-16T06:30:50.838Z,19.20
2018-06-16T06:35:53.394Z,19.10
2018-06-16T06:40:55.805Z,19.20
2018-06-16T06:45:58.595Z,19.40
2018-06-16T06:51:00.765Z,19.60
2018-06-16T06:56:03.053Z,19.70
2018-06-16T07:01:05.226Z,20.00
2018-06-16T07:06:07.363Z,20.20
2018-06-16T07:11:09.525Z,20.40
2018-06-16T07:16:11.680Z,20.40
2018-06-16T07:21:13.845Z,20.70
2018-06-16T07:26:16.016Z,21.00
2018-06-16T07:31:18.189Z,21.10
2018-06-16T07:36:20.346Z,21.20
2018-06-16T07:41:22.538Z,21.00
2018-06-16T07:46:24.710Z,21.40
2018-06-16T07:51:27.192Z,21.30
2018-06-16T07:56:29.359Z,21.30
2018-06-16T08:01:31.482Z,21.50
2018-06-16T08:06:33.646Z,21.90
2018-06-16T08:11:35.818Z,22.80
2018-06-16T08:16:37.970Z,22.30
2018-06-16T08:21:40.130Z,22.50
2018-06-16T08:26:42.273Z,22.70
2018-06-16T08:31:44.422Z,22.90
2018-06-16T08:36:46.601Z,23.00
2018-06-16T08:41:48.932Z,23.60
2018-06-16T08:46:51.147Z,24.30
2018-06-16T08:51:53.319Z,23.90
2018-06-16T08:56:55.517Z,23.90
2018-06-16T09:01:57.803Z,24.30
2018-06-16T09:06:59.979Z,24.60
2018-06-16T09:12:02.175Z,25.20
2018-06-16T09:17:04.514Z,25.30
2018-06-16T09:22:06.682Z,25.30
2018-06-16T09:27:08.971Z,25.40
2018-06-16T09:32:11.177Z,24.90
2018-06-16T09:37:13.385Z,25.70
2018-06-16T09:42:15.561Z,25.60
2018-06-16T09:47:17.730Z,25.90
2018-06-16T09:52:19.886Z,26.40
2018-06-16T09:57:22.025Z,26.20
2018-06-16T10:02:24.203Z,26.50
2018-06-16T10:07:26.348Z,25.70
2018-06-16T10:12:28.486Z,25.20
2018-06-16T10:17:30.625Z,26.30
2018-06-16T10:22:32.801Z,26.70
2018-06-16T10:27:34.961Z,26.50
2018-06-16T10:32:37.285Z,27.20
2018-06-16T10:37:39.446Z,26.80
2018-06-16T10:42:41.649Z,26.40
2018-06-16T10:47:43.789Z,26.20
2018-06-16T10:52:45.918Z,27.30
2018-06-16T10:57:48.050Z,27.30
2018-06-16T11:02:50.632Z,27.10
2018-06-16T11:07:52.765Z,26.90
2018-06-16T11:12:54.919Z,26.70
2018-06-16T11:17:57.094Z,27.10
2018-06-16T11:22:59.276Z,26.40
2018-06-16T11:28:01.455Z,26.60
2018-06-16T11:33:03.643Z,26.40
2018-06-16T11:38:05.817Z,27.00
2018-06-16T11:43:07.957Z,27.20
2018-06-16T11:48:10.192Z,26.40
2018-06-16T11:53:12.398Z,26.20
2018-06-16T11:58:14.569Z,26.80
2018-06-16T12:03:16.753Z,26.90
2018-06-16T12:08:18.912Z,26.70
2018-06-16T12:13:21.113Z,27.00
2018-06-16T12:18:23.368Z,26.30
2018-06-16T12:23:26.757Z,26.70
2018-06-16T12:28:28.919Z,26.50
2018-06-16T12:33:31.094Z,27.20
2018-06-16T12:38:33.270Z,27.30
2018-06-16T12:43:35.502Z,26.70
2018-06-16T12:48:37.690Z,26.90
2018-06-16T12:53:39.898Z,26.90
2018-06-16T12:58:42.074Z,26.90
2018-06-16T13:03:44.235Z,27.10
2018-06-16T13:08:46.402Z,26.80
2018-06-16T13:13:48.597Z,27.30
2018-06-16T13:18:50.797Z,26.90
2018-06-16T13:23:52.958Z,26.90
2018-06-16T13:28:55.174Z,26.50
2018-06-16T13:33:57.354Z,26.90
2018-06-16T13:39:01.947Z,26.80
2018-06-16T13:44:04.213Z,27.10
2018-06-16T13:49:06.691Z,27.10
2018-06-16T13:54:08.851Z,27.20
2018-06-16T13:59:11.038Z,27.30
2018-06-16T14:04:13.206Z,27.30
2018-06-16T14:09:15.333Z,27.40
2018-06-16T14:14:17.534Z,27.10
2018-06-16T14:19:19.705Z,27.40
2018-06-16T14:24:21.853Z,27.20
2018-06-16T14:29:24.010Z,27.10
2018-06-16T14:34:26.160Z,27.40
2018-06-16T14:39:28.338Z,27.40
2018-06-16T14:44:30.567Z,27.30
2018-06-16T14:49:32.770Z,27.10
2018-06-16T14:54:34.939Z,27.40
2018-06-16T14:59:37.145Z,27.40
2018-06-16T15:04:39.439Z,27.20
2018-06-16T15:09:41.561Z,27.30
2018-06-16T15:14:43.961Z,27.30
2018-06-16T15:19:46.155Z,26.80
2018-06-16T15:24:48.330Z,26.80
2018-06-16T15:29:50.531Z,27.30
2018-06-16T15:34:52.685Z,27.20
2018-06-16T15:39:54.861Z,27.10
2018-06-16T15:44:57.043Z,27.10
2018-06-16T15:49:59.222Z,27.10
2018-06-16T15:55:02.324Z,27.20
2018-06-16T16:00:05.380Z,27.20
2018-06-16T16:05:07.563Z,27.10
2018-06-16T16:10:09.769Z,27.00
2018-06-16T16:15:11.950Z,27.00
2018-06-16T16:20:14.145Z,26.80
2018-06-16T16:25:16.360Z,26.70
2018-06-16T16:30:18.574Z,26.60
2018-06-16T16:35:20.735Z,26.30
2018-06-16T16:40:23.063Z,26.40
2018-06-16T16:45:25.241Z,26.40
2018-06-16T16:50:27.434Z,26.40
2018-06-16T16:55:31.142Z,26.50
2018-06-16T17:00:33.367Z,26.50
2018-06-16T17:05:35.426Z,26.40
2018-06-16T17:10:37.581Z,26.40
2018-06-16T17:15:39.810Z,26.40
2018-06-16T17:20:41.956Z,26.00
2018-06-16T17:25:44.111Z,25.80
2018-06-16T17:30:46.293Z,25.90
2018-06-16T17:35:48.448Z,25.90
2018-06-16T17:40:50.774Z,25.80
2018-06-16T17:45:52.922Z,25.70
2018-06-16T17:50:55.100Z,25.80
2018-06-16T17:55:57.258Z,25.60
2018-06-16T18:00:59.429Z,25.50
2018-06-16T18:06:01.622Z,25.60
2018-06-16T18:11:03.940Z,25.60
2018-06-16T18:16:06.159Z,25.30
2018-06-16T18:21:08.495Z,25.30
2018-06-16T18:26:11.402Z,25.20
2018-06-16T18:31:13.716Z,25.10
2018-06-16T18:36:15.886Z,25.10
2018-06-16T18:41:18.118Z,25.00
2018-06-16T18:46:20.322Z,24.90
2018-06-16T18:51:22.489Z,24.80
2018-06-16T18:56:24.720Z,24.70
2018-06-16T19:01:26.964Z,24.50
2018-06-16T19:06:29.176Z,24.50
2018-06-16T19:11:31.393Z,24.40
2018-06-16T19:16:33.597Z,24.30
2018-06-16T19:21:35.795Z,24.10
2018-06-16T19:26:38.155Z,24.00
2018-06-16T19:31:40.358Z,23.80
2018-06-16T19:36:42.577Z,23.60
2018-06-16T19:41:44.821Z,23.40
2018-06-16T19:46:47.015Z,23.30
2018-06-16T19:51:49.268Z,23.20
2018-06-16T20:01:53.729Z,22.90
2018-06-16T20:06:55.934Z,22.70
2018-06-16T20:11:58.123Z,22.50
2018-06-16T20:17:00.347Z,22.20
2018-06-16T20:22:02.654Z,22.00
2018-06-16T20:27:04.900Z,21.80
2018-06-16T20:32:07.316Z,21.80
2018-06-16T20:37:09.578Z,21.60
2018-06-16T20:42:12.298Z,21.70
2018-06-16T20:47:14.519Z,21.70
2018-06-16T20:52:16.694Z,21.60
2018-06-16T20:57:18.873Z,21.60
2018-06-16T21:02:21.033Z,21.60
2018-06-16T21:07:23.197Z,21.60
2018-06-16T21:12:26.621Z,21.60
2018-06-16T21:17:28.831Z,21.50
2018-06-16T21:22:30.995Z,21.40
2018-06-16T21:27:33.156Z,21.40
2018-06-16T21:32:35.460Z,20.80
2018-06-16T21:37:37.622Z,20.80
2018-06-16T21:42:39.749Z,20.80
2018-06-16T21:47:41.905Z,21.00
2018-06-16T21:52:44.087Z,20.90
2018-06-16T21:57:46.283Z,20.60
2018-06-16T22:02:48.480Z,20.70
2018-06-16T22:07:50.673Z,20.90
2018-06-16T22:12:52.813Z,21.00
2018-06-16T22:17:54.987Z,20.70
2018-06-16T22:22:57.162Z,20.60
2018-06-16T22:27:59.308Z,20.60
2018-06-16T22:33:01.447Z,20.60
2018-06-16T22:38:03.742Z,20.60
2018-06-16T22:43:05.902Z,20.70
2018-06-16T22:48:08.065Z,20.80
2018-06-16T22:53:10.258Z,21.00
2018-06-16T22:58:12.475Z,20.80
2018-06-16T23:03:14.654Z,20.80
2018-06-16T23:08:16.821Z,20.90
2018-06-16T23:13:19.526Z,20.90
2018-06-16T23:18:21.697Z,20.60
2018-06-16T23:23:23.882Z,20.60
2018-06-16T23:28:26.068Z,20.50
2018-06-16T23:33:28.234Z,20.40
2018-06-16T23:38:30.410Z,20.60
2018-06-16T23:43:32.598Z,20.50
2018-06-16T23:48:34.778Z,20.60
2018-06-16T23:53:36.942Z,20.50
2018-06-16T23:58:39.110Z,20.40
